sensor_id;sensor_type;location;lat;lon;timestamp;temperature;humidity
54590;DHT22;40485;53.172;5.416;2022-09-27T00:02:12;13.30;94.50
54590;DHT22;40485;53.172;5.416;2022-09-27T00:04:37;13.10;94.60
54590;DHT22;40485;53.172;5.416;2022-09-27T00:07:03;13.00;95.50
54590;DHT22;40485;53.172;5.416;2022-09-27T00:09:29;13.00;96.10
54590;DHT22;40485;53.172;5.416;2022-09-27T00:11:55;13.20;96.30
54590;DHT22;40485;53.172;5.416;2022-09-27T00:14:20;13.20;96.00
54590;DHT22;40485;53.172;5.416;2022-09-27T00:16:46;13.30;95.70
54590;DHT22;40485;53.172;5.416;2022-09-27T00:19:15;13.40;95.00
54590;DHT22;40485;53.172;5.416;2022-09-27T00:21:41;13.40;94.00
54590;DHT22;40485;53.172;5.416;2022-09-27T00:24:19;13.50;93.80
54590;DHT22;40485;53.172;5.416;2022-09-27T00:26:46;13.50;93.50
54590;DHT22;40485;53.172;5.416;2022-09-27T00:29:13;13.50;94.00
54590;DHT22;40485;53.172;5.416;2022-09-27T00:31:38;13.60;94.80
54590;DHT22;40485;53.172;5.416;2022-09-27T00:34:05;13.60;95.20
54590;DHT22;40485;53.172;5.416;2022-09-27T00:36:32;13.70;95.50
54590;DHT22;40485;53.172;5.416;2022-09-27T00:38:58;13.80;95.50
54590;DHT22;40485;53.172;5.416;2022-09-27T00:41:33;13.80;94.10
54590;DHT22;40485;53.172;5.416;2022-09-27T00:44:02;13.80;93.80
54590;DHT22;40485;53.172;5.416;2022-09-27T00:46:41;13.80;93.00
54590;DHT22;40485;53.172;5.416;2022-09-27T00:51:44;13.80;93.70
54590;DHT22;40485;53.172;5.416;2022-09-27T00:54:14;13.70;93.60
54590;DHT22;40485;53.172;5.416;2022-09-27T00:56:42;13.70;94.10
54590;DHT22;40485;53.172;5.416;2022-09-27T00:59:16;13.80;94.60
54590;DHT22;40485;53.172;5.416;2022-09-27T01:01:43;13.70;94.10
54590;DHT22;40485;53.172;5.416;2022-09-27T01:04:11;13.60;95.00
54590;DHT22;40485;53.172;5.416;2022-09-27T01:06:38;13.50;95.30
54590;DHT22;40485;53.172;5.416;2022-09-27T01:09:05;13.80;95.60
54590;DHT22;40485;53.172;5.416;2022-09-27T01:14:12;14.50;96.00
54590;DHT22;40485;53.172;5.416;2022-09-27T01:17:08;14.80;95.40
54590;DHT22;40485;53.172;5.416;2022-09-27T01:22:36;14.50;93.30
54590;DHT22;40485;53.172;5.416;2022-09-27T01:25:38;14.00;93.30
54590;DHT22;40485;53.172;5.416;2022-09-27T01:28:35;13.70;93.20
54590;DHT22;40485;53.172;5.416;2022-09-27T01:34:54;13.30;94.50
54590;DHT22;40485;53.172;5.416;2022-09-27T01:37:07;13.30;94.70
54590;DHT22;40485;53.172;5.416;2022-09-27T01:40:01;13.30;94.60
54590;DHT22;40485;53.172;5.416;2022-09-27T01:47:51;13.80;93.80
54590;DHT22;40485;53.172;5.416;2022-09-27T01:50:37;14.10;94.20
54590;DHT22;40485;53.172;5.416;2022-09-27T01:53:05;14.40;94.40
54590;DHT22;40485;53.172;5.416;2022-09-27T01:55:35;14.50;94.60
54590;DHT22;40485;53.172;5.416;2022-09-27T01:58:09;14.60;94.80
54590;DHT22;40485;53.172;5.416;2022-09-27T02:00:37;14.80;95.20
54590;DHT22;40485;53.172;5.416;2022-09-27T02:03:10;14.90;95.20
54590;DHT22;40485;53.172;5.416;2022-09-27T02:05:44;15.00;95.10
54590;DHT22;40485;53.172;5.416;2022-09-27T02:10:51;14.90;92.60
54590;DHT22;40485;53.172;5.416;2022-09-27T02:13:37;14.30;93.50
54590;DHT22;40485;53.172;5.416;2022-09-27T02:16:26;13.90;93.40
54590;DHT22;40485;53.172;5.416;2022-09-27T02:21:30;13.50;93.30
54590;DHT22;40485;53.172;5.416;2022-09-27T02:23:59;13.50;93.40
54590;DHT22;40485;53.172;5.416;2022-09-27T02:26:34;13.50;94.10
54590;DHT22;40485;53.172;5.416;2022-09-27T02:29:15;13.50;94.30
54590;DHT22;40485;53.172;5.416;2022-09-27T02:31:42;13.40;94.70
54590;DHT22;40485;53.172;5.416;2022-09-27T02:34:19;13.50;94.90
54590;DHT22;40485;53.172;5.416;2022-09-27T02:36:46;13.70;95.10
54590;DHT22;40485;53.172;5.416;2022-09-27T02:39:13;13.80;94.50
54590;DHT22;40485;53.172;5.416;2022-09-27T02:41:39;13.90;94.20
54590;DHT22;40485;53.172;5.416;2022-09-27T02:44:08;13.70;94.10
54590;DHT22;40485;53.172;5.416;2022-09-27T02:49:33;14.00;94.10
54590;DHT22;40485;53.172;5.416;2022-09-27T02:52:28;14.20;93.50
54590;DHT22;40485;53.172;5.416;2022-09-27T02:55:20;14.20;93.00
54590;DHT22;40485;53.172;5.416;2022-09-27T02:57:57;13.90;93.40
54590;DHT22;40485;53.172;5.416;2022-09-27T03:00:38;13.50;94.10
54590;DHT22;40485;53.172;5.416;2022-09-27T03:03:12;13.20;93.90
54590;DHT22;40485;53.172;5.416;2022-09-27T03:05:52;13.10;92.40
54590;DHT22;40485;53.172;5.416;2022-09-27T03:08:18;13.10;92.80
54590;DHT22;40485;53.172;5.416;2022-09-27T03:10:44;12.90;93.30
54590;DHT22;40485;53.172;5.416;2022-09-27T03:13:10;12.90;93.50
54590;DHT22;40485;53.172;5.416;2022-09-27T03:15:36;12.90;93.20
54590;DHT22;40485;53.172;5.416;2022-09-27T03:18:02;13.00;93.40
54590;DHT22;40485;53.172;5.416;2022-09-27T03:20:28;12.90;93.90
54590;DHT22;40485;53.172;5.416;2022-09-27T03:22:54;12.80;94.00
54590;DHT22;40485;53.172;5.416;2022-09-27T03:25:21;13.00;93.80
54590;DHT22;40485;53.172;5.416;2022-09-27T03:27:46;12.90;93.90
54590;DHT22;40485;53.172;5.416;2022-09-27T03:30:13;13.00;93.90
54590;DHT22;40485;53.172;5.416;2022-09-27T03:32:43;13.10;94.10
54590;DHT22;40485;53.172;5.416;2022-09-27T03:35:09;13.20;94.10
54590;DHT22;40485;53.172;5.416;2022-09-27T03:37:35;13.10;94.10
54590;DHT22;40485;53.172;5.416;2022-09-27T03:40:01;13.10;93.60
54590;DHT22;40485;53.172;5.416;2022-09-27T03:42:26;13.20;93.60
54590;DHT22;40485;53.172;5.416;2022-09-27T03:44:52;13.30;93.50
54590;DHT22;40485;53.172;5.416;2022-09-27T03:47:18;13.30;92.80
54590;DHT22;40485;53.172;5.416;2022-09-27T03:49:44;13.40;92.10
54590;DHT22;40485;53.172;5.416;2022-09-27T03:52:09;13.50;92.00
54590;DHT22;40485;53.172;5.416;2022-09-27T03:54:35;13.70;91.80
54590;DHT22;40485;53.172;5.416;2022-09-27T03:57:00;13.70;92.30
54590;DHT22;40485;53.172;5.416;2022-09-27T03:59:26;13.50;93.10
54590;DHT22;40485;53.172;5.416;2022-09-27T04:01:51;13.30;93.30
54590;DHT22;40485;53.172;5.416;2022-09-27T04:04:17;13.20;93.00
54590;DHT22;40485;53.172;5.416;2022-09-27T04:06:43;13.20;93.20
54590;DHT22;40485;53.172;5.416;2022-09-27T04:09:08;13.20;93.10
54590;DHT22;40485;53.172;5.416;2022-09-27T04:11:34;13.50;93.80
54590;DHT22;40485;53.172;5.416;2022-09-27T04:14:00;13.20;94.30
54590;DHT22;40485;53.172;5.416;2022-09-27T04:16:26;13.20;94.30
54590;DHT22;40485;53.172;5.416;2022-09-27T04:18:52;13.20;93.80
54590;DHT22;40485;53.172;5.416;2022-09-27T04:21:17;13.20;93.80
54590;DHT22;40485;53.172;5.416;2022-09-27T04:23:44;13.20;93.80
54590;DHT22;40485;53.172;5.416;2022-09-27T04:26:11;13.10;93.20
54590;DHT22;40485;53.172;5.416;2022-09-27T04:28:38;13.10;92.30
54590;DHT22;40485;53.172;5.416;2022-09-27T04:31:03;13.10;92.60
54590;DHT22;40485;53.172;5.416;2022-09-27T04:33:29;13.20;92.30
54590;DHT22;40485;53.172;5.416;2022-09-27T04:35:55;13.10;92.50
54590;DHT22;40485;53.172;5.416;2022-09-27T04:38:39;13.00;92.90
54590;DHT22;40485;53.172;5.416;2022-09-27T04:41:04;13.00;93.20
54590;DHT22;40485;53.172;5.416;2022-09-27T04:43:31;13.10;93.80
54590;DHT22;40485;53.172;5.416;2022-09-27T04:45:57;13.20;94.40
54590;DHT22;40485;53.172;5.416;2022-09-27T04:48:23;13.00;94.30
54590;DHT22;40485;53.172;5.416;2022-09-27T04:50:55;13.20;94.50
54590;DHT22;40485;53.172;5.416;2022-09-27T04:53:21;13.30;94.90
54590;DHT22;40485;53.172;5.416;2022-09-27T04:55:48;13.20;94.30
54590;DHT22;40485;53.172;5.416;2022-09-27T04:58:14;13.30;93.80
54590;DHT22;40485;53.172;5.416;2022-09-27T05:00:40;13.20;93.30
54590;DHT22;40485;53.172;5.416;2022-09-27T05:03:07;13.20;93.70
54590;DHT22;40485;53.172;5.416;2022-09-27T05:05:33;13.10;93.50
54590;DHT22;40485;53.172;5.416;2022-09-27T05:07:58;13.00;93.60
54590;DHT22;40485;53.172;5.416;2022-09-27T05:10:25;12.90;93.90
54590;DHT22;40485;53.172;5.416;2022-09-27T05:12:50;12.90;94.40
54590;DHT22;40485;53.172;5.416;2022-09-27T05:15:16;12.90;95.10
54590;DHT22;40485;53.172;5.416;2022-09-27T05:17:41;12.90;95.40
54590;DHT22;40485;53.172;5.416;2022-09-27T05:20:07;12.90;95.50
54590;DHT22;40485;53.172;5.416;2022-09-27T05:22:34;13.00;95.20
54590;DHT22;40485;53.172;5.416;2022-09-27T05:25:00;13.00;95.00
54590;DHT22;40485;53.172;5.416;2022-09-27T05:27:26;12.80;94.10
54590;DHT22;40485;53.172;5.416;2022-09-27T05:29:51;12.80;94.00
54590;DHT22;40485;53.172;5.416;2022-09-27T05:32:18;12.80;94.10
54590;DHT22;40485;53.172;5.416;2022-09-27T05:34:44;12.80;94.50
54590;DHT22;40485;53.172;5.416;2022-09-27T05:37:09;12.90;95.20
54590;DHT22;40485;53.172;5.416;2022-09-27T05:39:35;13.10;94.00
54590;DHT22;40485;53.172;5.416;2022-09-27T05:42:01;13.10;93.40
54590;DHT22;40485;53.172;5.416;2022-09-27T05:44:28;13.30;93.30
54590;DHT22;40485;53.172;5.416;2022-09-27T05:46:53;13.20;93.00
54590;DHT22;40485;53.172;5.416;2022-09-27T05:49:19;13.40;93.20
54590;DHT22;40485;53.172;5.416;2022-09-27T05:51:44;13.20;93.90
54590;DHT22;40485;53.172;5.416;2022-09-27T05:54:10;13.20;92.00
54590;DHT22;40485;53.172;5.416;2022-09-27T05:56:35;13.10;92.30
54590;DHT22;40485;53.172;5.416;2022-09-27T05:59:01;13.10;92.20
54590;DHT22;40485;53.172;5.416;2022-09-27T06:01:27;12.90;92.70
54590;DHT22;40485;53.172;5.416;2022-09-27T06:03:53;13.00;93.50
54590;DHT22;40485;53.172;5.416;2022-09-27T06:06:20;12.90;94.40
54590;DHT22;40485;53.172;5.416;2022-09-27T06:08:47;12.90;95.00
54590;DHT22;40485;53.172;5.416;2022-09-27T06:11:14;12.90;95.20
54590;DHT22;40485;53.172;5.416;2022-09-27T06:13:40;13.10;94.90
54590;DHT22;40485;53.172;5.416;2022-09-27T06:16:07;12.90;95.20
54590;DHT22;40485;53.172;5.416;2022-09-27T06:18:34;12.70;96.10
54590;DHT22;40485;53.172;5.416;2022-09-27T06:21:01;12.50;96.90
54590;DHT22;40485;53.172;5.416;2022-09-27T06:23:27;12.70;97.40
54590;DHT22;40485;53.172;5.416;2022-09-27T06:25:53;12.90;96.70
54590;DHT22;40485;53.172;5.416;2022-09-27T06:28:20;12.70;97.20
54590;DHT22;40485;53.172;5.416;2022-09-27T06:30:48;12.40;97.90
54590;DHT22;40485;53.172;5.416;2022-09-27T06:33:17;12.30;98.50
54590;DHT22;40485;53.172;5.416;2022-09-27T06:35:44;12.20;98.80
54590;DHT22;40485;53.172;5.416;2022-09-27T06:38:12;12.20;99.20
54590;DHT22;40485;53.172;5.416;2022-09-27T06:40:41;12.20;99.30
54590;DHT22;40485;53.172;5.416;2022-09-27T06:43:10;12.20;98.80
54590;DHT22;40485;53.172;5.416;2022-09-27T06:45:37;12.20;98.80
54590;DHT22;40485;53.172;5.416;2022-09-27T06:48:04;12.30;98.30
54590;DHT22;40485;53.172;5.416;2022-09-27T06:50:31;12.30;98.10
54590;DHT22;40485;53.172;5.416;2022-09-27T06:52:57;12.30;98.40
54590;DHT22;40485;53.172;5.416;2022-09-27T06:55:23;12.30;97.70
54590;DHT22;40485;53.172;5.416;2022-09-27T06:57:53;12.30;97.10
54590;DHT22;40485;53.172;5.416;2022-09-27T07:00:37;12.20;96.20
54590;DHT22;40485;53.172;5.416;2022-09-27T07:03:03;12.40;96.50
54590;DHT22;40485;53.172;5.416;2022-09-27T07:05:29;12.40;96.60
54590;DHT22;40485;53.172;5.416;2022-09-27T07:07:56;12.40;97.00
54590;DHT22;40485;53.172;5.416;2022-09-27T07:10:27;12.50;97.10
54590;DHT22;40485;53.172;5.416;2022-09-27T07:12:53;12.40;97.60
54590;DHT22;40485;53.172;5.416;2022-09-27T07:15:20;12.40;96.80
54590;DHT22;40485;53.172;5.416;2022-09-27T07:17:48;12.20;95.90
54590;DHT22;40485;53.172;5.416;2022-09-27T07:20:19;12.10;95.70
54590;DHT22;40485;53.172;5.416;2022-09-27T07:22:45;12.00;95.00
54590;DHT22;40485;53.172;5.416;2022-09-27T07:25:11;12.00;95.00
54590;DHT22;40485;53.172;5.416;2022-09-27T07:27:37;12.10;95.40
54590;DHT22;40485;53.172;5.416;2022-09-27T07:30:06;12.20;95.90
54590;DHT22;40485;53.172;5.416;2022-09-27T07:32:33;12.30;95.50
54590;DHT22;40485;53.172;5.416;2022-09-27T07:35:02;12.30;95.70
54590;DHT22;40485;53.172;5.416;2022-09-27T07:37:27;12.20;95.00
54590;DHT22;40485;53.172;5.416;2022-09-27T07:39:53;12.20;96.10
54590;DHT22;40485;53.172;5.416;2022-09-27T07:42:18;12.20;96.70
54590;DHT22;40485;53.172;5.416;2022-09-27T07:44:45;12.20;97.00
54590;DHT22;40485;53.172;5.416;2022-09-27T07:47:10;12.20;96.50
54590;DHT22;40485;53.172;5.416;2022-09-27T07:49:36;12.20;96.30
54590;DHT22;40485;53.172;5.416;2022-09-27T07:52:01;12.10;94.60
54590;DHT22;40485;53.172;5.416;2022-09-27T07:54:27;12.20;94.50
54590;DHT22;40485;53.172;5.416;2022-09-27T07:56:54;12.10;94.80
54590;DHT22;40485;53.172;5.416;2022-09-27T07:59:20;12.20;96.00
54590;DHT22;40485;53.172;5.416;2022-09-27T08:01:46;12.10;97.10
54590;DHT22;40485;53.172;5.416;2022-09-27T08:04:11;11.80;96.70
54590;DHT22;40485;53.172;5.416;2022-09-27T08:06:37;11.70;97.20
54590;DHT22;40485;53.172;5.416;2022-09-27T08:09:05;11.60;97.90
54590;DHT22;40485;53.172;5.416;2022-09-27T08:11:31;11.60;98.40
54590;DHT22;40485;53.172;5.416;2022-09-27T08:13:57;11.50;98.60
54590;DHT22;40485;53.172;5.416;2022-09-27T08:16:22;11.70;98.80
54590;DHT22;40485;53.172;5.416;2022-09-27T08:18:48;12.00;99.00
54590;DHT22;40485;53.172;5.416;2022-09-27T08:21:14;12.30;99.10
54590;DHT22;40485;53.172;5.416;2022-09-27T08:23:39;12.60;99.00
54590;DHT22;40485;53.172;5.416;2022-09-27T08:26:07;12.80;99.00
54590;DHT22;40485;53.172;5.416;2022-09-27T08:28:32;13.00;99.10
54590;DHT22;40485;53.172;5.416;2022-09-27T08:30:58;13.20;99.20
54590;DHT22;40485;53.172;5.416;2022-09-27T08:33:23;13.50;98.80
54590;DHT22;40485;53.172;5.416;2022-09-27T08:35:50;13.60;97.20
54590;DHT22;40485;53.172;5.416;2022-09-27T08:38:16;13.50;96.40
54590;DHT22;40485;53.172;5.416;2022-09-27T08:40:50;13.40;96.40
54590;DHT22;40485;53.172;5.416;2022-09-27T08:46:17;13.50;96.40
54590;DHT22;40485;53.172;5.416;2022-09-27T08:48:48;13.70;96.10
54590;DHT22;40485;53.172;5.416;2022-09-27T08:51:14;13.60;95.50
54590;DHT22;40485;53.172;5.416;2022-09-27T08:53:50;13.30;95.70
54590;DHT22;40485;53.172;5.416;2022-09-27T08:56:17;13.00;96.30
54590;DHT22;40485;53.172;5.416;2022-09-27T08:59:00;12.70;96.30
54590;DHT22;40485;53.172;5.416;2022-09-27T09:01:30;12.50;97.10
54590;DHT22;40485;53.172;5.416;2022-09-27T09:03:59;12.30;96.90
54590;DHT22;40485;53.172;5.416;2022-09-27T09:09:18;11.80;98.30
54590;DHT22;40485;53.172;5.416;2022-09-27T09:26:04;12.90;97.10
54590;DHT22;40485;53.172;5.416;2022-09-27T09:33:40;13.20;96.50
54590;DHT22;40485;53.172;5.416;2022-09-27T09:39:01;13.50;96.60
54590;DHT22;40485;53.172;5.416;2022-09-27T09:41:37;13.80;96.70
54590;DHT22;40485;53.172;5.416;2022-09-27T09:44:12;13.90;95.20
54590;DHT22;40485;53.172;5.416;2022-09-27T09:46:45;13.90;93.70
54590;DHT22;40485;53.172;5.416;2022-09-27T09:49:27;13.90;93.30
54590;DHT22;40485;53.172;5.416;2022-09-27T09:51:59;14.10;92.80
54590;DHT22;40485;53.172;5.416;2022-09-27T09:54:34;14.30;92.00
54590;DHT22;40485;53.172;5.416;2022-09-27T09:57:21;14.30;91.70
54590;DHT22;40485;53.172;5.416;2022-09-27T10:00:15;14.30;90.80
54590;DHT22;40485;53.172;5.416;2022-09-27T10:02:43;14.40;90.60
54590;DHT22;40485;53.172;5.416;2022-09-27T10:05:13;14.60;89.90
54590;DHT22;40485;53.172;5.416;2022-09-27T10:07:40;14.80;89.10
54590;DHT22;40485;53.172;5.416;2022-09-27T10:10:06;14.90;88.00
54590;DHT22;40485;53.172;5.416;2022-09-27T10:12:34;14.90;87.90
54590;DHT22;40485;53.172;5.416;2022-09-27T10:15:03;15.00;87.30
54590;DHT22;40485;53.172;5.416;2022-09-27T10:17:36;15.00;86.50
54590;DHT22;40485;53.172;5.416;2022-09-27T10:20:04;15.20;87.00
54590;DHT22;40485;53.172;5.416;2022-09-27T10:22:40;15.30;85.90
54590;DHT22;40485;53.172;5.416;2022-09-27T10:25:07;15.30;85.40
54590;DHT22;40485;53.172;5.416;2022-09-27T10:27:43;15.40;86.00
54590;DHT22;40485;53.172;5.416;2022-09-27T10:30:28;15.50;86.50
54590;DHT22;40485;53.172;5.416;2022-09-27T10:32:59;15.50;89.10
54590;DHT22;40485;53.172;5.416;2022-09-27T10:35:38;15.50;90.20
54590;DHT22;40485;53.172;5.416;2022-09-27T10:38:24;15.30;90.10
54590;DHT22;40485;53.172;5.416;2022-09-27T10:40:52;15.00;90.20
54590;DHT22;40485;53.172;5.416;2022-09-27T10:46:05;14.60;91.30
54590;DHT22;40485;53.172;5.416;2022-09-27T10:48:31;14.60;90.50
54590;DHT22;40485;53.172;5.416;2022-09-27T10:51:05;14.60;90.30
54590;DHT22;40485;53.172;5.416;2022-09-27T10:53:33;14.60;89.80
54590;DHT22;40485;53.172;5.416;2022-09-27T10:56:00;14.60;90.10
54590;DHT22;40485;53.172;5.416;2022-09-27T10:58:36;14.70;89.60
54590;DHT22;40485;53.172;5.416;2022-09-27T11:01:08;14.80;90.00
54590;DHT22;40485;53.172;5.416;2022-09-27T11:03:53;14.90;90.00
54590;DHT22;40485;53.172;5.416;2022-09-27T11:06:27;15.10;90.10
54590;DHT22;40485;53.172;5.416;2022-09-27T11:08:55;15.30;90.10
54590;DHT22;40485;53.172;5.416;2022-09-27T11:11:33;15.40;89.60
54590;DHT22;40485;53.172;5.416;2022-09-27T11:14:09;15.40;89.80
54590;DHT22;40485;53.172;5.416;2022-09-27T11:16:49;15.30;90.20
54590;DHT22;40485;53.172;5.416;2022-09-27T11:27:55;15.40;84.80
54590;DHT22;40485;53.172;5.416;2022-09-27T11:30:23;15.50;83.30
54590;DHT22;40485;53.172;5.416;2022-09-27T11:38:29;15.30;85.80
54590;DHT22;40485;53.172;5.416;2022-09-27T11:54:20;14.00;90.70
54590;DHT22;40485;53.172;5.416;2022-09-27T11:57:02;13.70;90.90
54590;DHT22;40485;53.172;5.416;2022-09-27T11:59:50;13.40;91.40
54590;DHT22;40485;53.172;5.416;2022-09-27T12:02:50;13.20;92.30
54590;DHT22;40485;53.172;5.416;2022-09-27T12:05:37;13.20;94.20
54590;DHT22;40485;53.172;5.416;2022-09-27T12:11:29;13.80;93.40
54590;DHT22;40485;53.172;5.416;2022-09-27T12:16:27;13.90;93.30
54590;DHT22;40485;53.172;5.416;2022-09-27T12:18:55;13.90;94.10
54590;DHT22;40485;53.172;5.416;2022-09-27T12:21:22;14.10;94.20
54590;DHT22;40485;53.172;5.416;2022-09-27T12:23:51;14.20;93.80
54590;DHT22;40485;53.172;5.416;2022-09-27T12:26:35;14.20;93.30
54590;DHT22;40485;53.172;5.416;2022-09-27T12:29:16;14.30;93.20
54590;DHT22;40485;53.172;5.416;2022-09-27T12:32:17;14.30;93.20
54590;DHT22;40485;53.172;5.416;2022-09-27T12:37:34;14.50;92.30
54590;DHT22;40485;53.172;5.416;2022-09-27T12:42:45;14.60;93.00
54590;DHT22;40485;53.172;5.416;2022-09-27T12:45:14;14.90;93.10
54590;DHT22;40485;53.172;5.416;2022-09-27T12:48:11;15.00;92.20
54590;DHT22;40485;53.172;5.416;2022-09-27T12:50:49;15.00;91.90
54590;DHT22;40485;53.172;5.416;2022-09-27T12:53:16;15.20;90.30
54590;DHT22;40485;53.172;5.416;2022-09-27T12:59:04;15.20;89.90
54590;DHT22;40485;53.172;5.416;2022-09-27T13:12:51;15.70;91.00
54590;DHT22;40485;53.172;5.416;2022-09-27T13:15:30;16.10;90.60
54590;DHT22;40485;53.172;5.416;2022-09-27T13:17:58;16.30;90.60
54590;DHT22;40485;53.172;5.416;2022-09-27T13:25:49;16.50;90.20
54590;DHT22;40485;53.172;5.416;2022-09-27T13:30:58;16.40;90.50
54590;DHT22;40485;53.172;5.416;2022-09-27T13:33:46;16.30;90.60
54590;DHT22;40485;53.172;5.416;2022-09-27T13:36:31;16.10;90.60
54590;DHT22;40485;53.172;5.416;2022-09-27T13:41:31;16.30;91.70
54590;DHT22;40485;53.172;5.416;2022-09-27T13:46:55;15.70;90.80
54590;DHT22;40485;53.172;5.416;2022-09-27T13:49:25;15.40;91.10
54590;DHT22;40485;53.172;5.416;2022-09-27T13:52:04;15.20;91.40
54590;DHT22;40485;53.172;5.416;2022-09-27T13:54:52;15.10;91.60
54590;DHT22;40485;53.172;5.416;2022-09-27T13:57:54;14.90;91.30
54590;DHT22;40485;53.172;5.416;2022-09-27T14:00:26;14.80;92.10
54590;DHT22;40485;53.172;5.416;2022-09-27T14:05:52;14.40;91.70
54590;DHT22;40485;53.172;5.416;2022-09-27T14:08:28;14.40;92.80
54590;DHT22;40485;53.172;5.416;2022-09-27T14:10:54;14.30;92.70
54590;DHT22;40485;53.172;5.416;2022-09-27T14:13:21;14.30;92.00
54590;DHT22;40485;53.172;5.416;2022-09-27T14:15:49;14.30;90.80
54590;DHT22;40485;53.172;5.416;2022-09-27T14:18:15;14.50;90.10
54590;DHT22;40485;53.172;5.416;2022-09-27T14:20:45;14.60;89.90
54590;DHT22;40485;53.172;5.416;2022-09-27T14:23:19;14.50;90.00
54590;DHT22;40485;53.172;5.416;2022-09-27T14:25:46;14.50;90.20
54590;DHT22;40485;53.172;5.416;2022-09-27T14:28:24;14.70;89.80
54590;DHT22;40485;53.172;5.416;2022-09-27T14:33:42;14.40;87.60
54590;DHT22;40485;53.172;5.416;2022-09-27T14:36:26;14.20;87.40
54590;DHT22;40485;53.172;5.416;2022-09-27T14:39:24;14.10;87.20
54590;DHT22;40485;53.172;5.416;2022-09-27T14:41:50;14.00;87.90
54590;DHT22;40485;53.172;5.416;2022-09-27T14:44:18;13.80;87.80
54590;DHT22;40485;53.172;5.416;2022-09-27T14:46:45;13.70;88.80
54590;DHT22;40485;53.172;5.416;2022-09-27T14:49:22;13.60;90.10
54590;DHT22;40485;53.172;5.416;2022-09-27T14:51:53;13.50;90.40
54590;DHT22;40485;53.172;5.416;2022-09-27T14:54:27;13.40;90.20
54590;DHT22;40485;53.172;5.416;2022-09-27T14:56:55;13.40;90.80
54590;DHT22;40485;53.172;5.416;2022-09-27T14:59:29;13.20;91.50
54590;DHT22;40485;53.172;5.416;2022-09-27T15:02:03;13.10;91.60
54590;DHT22;40485;53.172;5.416;2022-09-27T15:04:36;12.90;92.20
54590;DHT22;40485;53.172;5.416;2022-09-27T15:07:02;12.70;92.70
54590;DHT22;40485;53.172;5.416;2022-09-27T15:09:28;12.60;92.90
54590;DHT22;40485;53.172;5.416;2022-09-27T15:11:57;12.50;93.00
54590;DHT22;40485;53.172;5.416;2022-09-27T15:14:25;12.40;93.30
54590;DHT22;40485;53.172;5.416;2022-09-27T15:16:54;12.40;93.80
54590;DHT22;40485;53.172;5.416;2022-09-27T15:19:27;12.30;93.80
54590;DHT22;40485;53.172;5.416;2022-09-27T15:21:54;12.20;93.60
54590;DHT22;40485;53.172;5.416;2022-09-27T15:24:44;12.10;93.90
54590;DHT22;40485;53.172;5.416;2022-09-27T15:27:19;12.00;93.90
54590;DHT22;40485;53.172;5.416;2022-09-27T15:29:48;11.90;93.80
54590;DHT22;40485;53.172;5.416;2022-09-27T15:32:17;11.80;93.60
54590;DHT22;40485;53.172;5.416;2022-09-27T15:34:44;11.80;93.80
54590;DHT22;40485;53.172;5.416;2022-09-27T15:37:25;11.60;94.10
54590;DHT22;40485;53.172;5.416;2022-09-27T15:39:51;11.60;94.70
54590;DHT22;40485;53.172;5.416;2022-09-27T15:42:17;11.60;94.60
54590;DHT22;40485;53.172;5.416;2022-09-27T15:44:48;11.50;94.80
54590;DHT22;40485;53.172;5.416;2022-09-27T15:52:44;11.40;96.20
54590;DHT22;40485;53.172;5.416;2022-09-27T15:55:17;11.20;96.50
54590;DHT22;40485;53.172;5.416;2022-09-27T15:57:47;11.00;96.50
54590;DHT22;40485;53.172;5.416;2022-09-27T16:00:16;11.10;97.10
54590;DHT22;40485;53.172;5.416;2022-09-27T16:02:44;10.90;96.90
54590;DHT22;40485;53.172;5.416;2022-09-27T16:05:10;10.70;97.30
54590;DHT22;40485;53.172;5.416;2022-09-27T16:07:36;10.70;97.20
54590;DHT22;40485;53.172;5.416;2022-09-27T16:10:12;10.70;97.30
54590;DHT22;40485;53.172;5.416;2022-09-27T16:12:39;10.60;97.40
54590;DHT22;40485;53.172;5.416;2022-09-27T16:15:05;10.90;97.80
54590;DHT22;40485;53.172;5.416;2022-09-27T16:17:31;10.60;97.30
54590;DHT22;40485;53.172;5.416;2022-09-27T16:19:57;10.60;97.10
54590;DHT22;40485;53.172;5.416;2022-09-27T16:22:22;10.50;96.90
54590;DHT22;40485;53.172;5.416;2022-09-27T16:24:48;10.70;97.20
54590;DHT22;40485;53.172;5.416;2022-09-27T16:27:25;10.60;97.20
54590;DHT22;40485;53.172;5.416;2022-09-27T16:29:52;10.50;97.10
54590;DHT22;40485;53.172;5.416;2022-09-27T16:32:18;10.60;97.20
54590;DHT22;40485;53.172;5.416;2022-09-27T16:34:44;10.60;97.10
54590;DHT22;40485;53.172;5.416;2022-09-27T16:37:09;10.60;96.90
54590;DHT22;40485;53.172;5.416;2022-09-27T16:39:35;10.70;96.90
54590;DHT22;40485;53.172;5.416;2022-09-27T16:42:01;10.70;96.50
54590;DHT22;40485;53.172;5.416;2022-09-27T16:44:30;10.70;96.20
54590;DHT22;40485;53.172;5.416;2022-09-27T16:47:03;10.70;95.90
54590;DHT22;40485;53.172;5.416;2022-09-27T16:49:29;10.70;95.60
54590;DHT22;40485;53.172;5.416;2022-09-27T16:52:13;10.70;95.80
54590;DHT22;40485;53.172;5.416;2022-09-27T16:54:41;10.70;96.00
54590;DHT22;40485;53.172;5.416;2022-09-27T16:57:07;10.80;96.00
54590;DHT22;40485;53.172;5.416;2022-09-27T16:59:33;10.80;96.00
54590;DHT22;40485;53.172;5.416;2022-09-27T17:01:59;10.80;95.80
54590;DHT22;40485;53.172;5.416;2022-09-27T17:04:26;10.80;95.90
54590;DHT22;40485;53.172;5.416;2022-09-27T17:06:52;10.80;96.00
54590;DHT22;40485;53.172;5.416;2022-09-27T17:09:19;10.80;96.00
54590;DHT22;40485;53.172;5.416;2022-09-27T17:11:45;10.90;95.90
54590;DHT22;40485;53.172;5.416;2022-09-27T17:14:11;10.90;95.70
54590;DHT22;40485;53.172;5.416;2022-09-27T17:16:42;11.00;95.50
54590;DHT22;40485;53.172;5.416;2022-09-27T17:19:08;10.90;95.40
54590;DHT22;40485;53.172;5.416;2022-09-27T17:21:38;10.90;95.40
54590;DHT22;40485;53.172;5.416;2022-09-27T17:24:04;10.90;95.20
54590;DHT22;40485;53.172;5.416;2022-09-27T17:26:30;10.90;95.10
54590;DHT22;40485;53.172;5.416;2022-09-27T17:28:57;10.90;94.80
54590;DHT22;40485;53.172;5.416;2022-09-27T17:31:23;10.90;94.10
54590;DHT22;40485;53.172;5.416;2022-09-27T17:33:50;10.80;93.80
54590;DHT22;40485;53.172;5.416;2022-09-27T17:36:21;10.90;93.70
54590;DHT22;40485;53.172;5.416;2022-09-27T17:38:49;10.90;93.30
54590;DHT22;40485;53.172;5.416;2022-09-27T17:41:22;10.90;93.20
54590;DHT22;40485;53.172;5.416;2022-09-27T17:43:52;10.90;93.30
54590;DHT22;40485;53.172;5.416;2022-09-27T17:46:25;10.90;93.30
54590;DHT22;40485;53.172;5.416;2022-09-27T17:48:51;10.90;93.50
54590;DHT22;40485;53.172;5.416;2022-09-27T17:51:38;10.90;93.80
54590;DHT22;40485;53.172;5.416;2022-09-27T17:54:04;10.90;94.20
54590;DHT22;40485;53.172;5.416;2022-09-27T17:56:34;10.90;94.10
54590;DHT22;40485;53.172;5.416;2022-09-27T17:59:01;10.90;94.20
54590;DHT22;40485;53.172;5.416;2022-09-27T18:01:27;10.90;94.10
54590;DHT22;40485;53.172;5.416;2022-09-27T18:03:54;10.90;94.00